Time;durP1;ratioP1;P1;durP2;ratioP2;P2;SDS_P1;SDS_P2;PMS_P1;PMS_P2;Temp;Humidity;BMP_temperature;BMP_pressure;BME280_temperature;BME280_humidity;BME280_pressure;Samples;Min_cycle;Max_cycle;Signal;HPM_P1;HPM_P2
2023/01/01 00:01:21;;;;;;;38.85;17.58;;;16.20;66.50;;;;;;2345256;57;21161;-62
2023/01/01 00:03:50;;;;;;;33.42;17.05;;;16.30;66.60;;;;;;2345582;57;21584;-62
2023/01/01 00:06:17;;;;;;;18.67;11.63;;;16.30;66.30;;;;;;2345623;57;21617;-62
2023/01/01 00:11:20;;;;;;;27.50;11.02;;;16.30;65.80;;;;;;2355611;57;22058;-60
2023/01/01 00:13:49;;;;;;;20.55;9.48;;;16.40;65.80;;;;;;2347246;57;21510;-61
2023/01/01 00:16:19;;;;;;;19.33;7.47;;;16.40;65.80;;;;;;2366049;56;21083;-60
2023/01/01 00:18:46;;;;;;;17.10;7.68;;;16.30;65.40;;;;;;2374031;56;21116;-60
2023/01/01 00:21:14;;;;;;;16.02;7.12;;;16.30;65.60;;;;;;2455228;52;21355;-60
2023/01/01 00:23:41;;;;;;;18.08;6.68;;;16.30;65.20;;;;;;2374244;56;21119;-61
2023/01/01 00:26:10;;;;;;;20.02;7.28;;;16.30;65.10;;;;;;2374051;56;21291;-63
2023/01/01 00:28:37;;;;;;;16.52;8.68;;;16.40;65.30;;;;;;2374436;56;21512;-63
2023/01/01 00:31:07;;;;;;;10.88;5.53;;;16.40;65.60;;;;;;2374683;56;21072;-63
2023/01/01 00:33:35;;;;;;;12.23;5.78;;;16.30;65.10;;;;;;2374475;56;21124;-63
2023/01/01 00:36:07;;;;;;;17.92;6.05;;;16.30;64.80;;;;;;2374330;56;21091;-62
2023/01/01 00:38:35;;;;;;;16.70;6.18;;;16.40;64.70;;;;;;2375155;56;21039;-63
2023/01/01 00:41:02;;;;;;;15.48;6.72;;;16.40;64.70;;;;;;2374463;56;21095;-63
2023/01/01 00:43:30;;;;;;;17.58;8.38;;;16.40;64.70;;;;;;2374573;56;21543;-63
2023/01/01 00:45:57;;;;;;;16.52;6.43;;;16.40;65.10;;;;;;2374737;56;22226;-63
2023/01/01 00:48:24;;;;;;;18.50;7.25;;;16.40;65.00;;;;;;2373811;56;21052;-63
2023/01/01 00:50:53;;;;;;;21.90;6.75;;;16.40;65.10;;;;;;2532365;52;21108;-63
2023/01/01 00:53:20;;;;;;;9.70;4.80;;;16.40;64.50;;;;;;2374617;56;21047;-62
2023/01/01 00:55:49;;;;;;;15.80;5.53;;;16.40;64.60;;;;;;2373738;56;21626;-63
2023/01/01 00:58:17;;;;;;;19.95;5.87;;;16.40;64.40;;;;;;2374716;56;21599;-63
2023/01/01 01:00:45;;;;;;;16.67;5.90;;;16.40;64.00;;;;;;2374666;56;21576;-63
2023/01/01 01:03:26;;;;;;;18.60;5.62;;;16.40;64.10;;;;;;2374843;56;21618;-63
2023/01/01 01:05:54;;;;;;;13.52;6.68;;;16.40;64.30;;;;;;2375895;56;21023;-63
2023/01/01 01:08:21;;;;;;;16.30;7.50;;;16.40;64.10;;;;;;2629087;52;21091;-63
2023/01/01 01:10:48;;;;;;;21.27;8.80;;;16.40;64.60;;;;;;2374863;56;21032;-63
2023/01/01 01:13:15;;;;;;;15.07;6.35;;;16.50;64.20;;;;;;2375620;56;21019;-63
2023/01/01 01:15:42;;;;;;;19.58;7.45;;;16.50;64.10;;;;;;2374570;56;21043;-61
2023/01/01 01:18:09;;;;;;;16.90;6.18;;;16.50;64.50;;;;;;2374726;56;21036;-60
2023/01/01 01:20:36;;;;;;;14.07;7.32;;;16.50;64.10;;;;;;2374480;56;21056;-61
2023/01/01 01:23:04;;;;;;;12.95;5.28;;;16.50;64.20;;;;;;2373388;56;21119;-60
2023/01/01 01:25:31;;;;;;;23.27;9.27;;;16.50;64.10;;;;;;2373098;56;21646;-62
2023/01/01 01:27:58;;;;;;;15.45;6.53;;;16.60;64.20;;;;;;2373207;56;21063;-59
2023/01/01 01:30:25;;;;;;;15.43;5.00;;;16.60;63.80;;;;;;2374025;56;21051;-61
2023/01/01 01:32:52;;;;;;;15.10;5.85;;;16.60;63.80;;;;;;2373998;56;21556;-60
2023/01/01 01:35:19;;;;;;;17.52;5.53;;;16.60;64.20;;;;;;2627175;52;21036;-61
2023/01/01 01:37:47;;;;;;;15.05;5.00;;;16.60;64.10;;;;;;2373756;56;21080;-60
2023/01/01 01:40:17;;;;;;;12.95;4.90;;;16.60;63.40;;;;;;2373854;56;21040;-60
2023/01/01 01:42:47;;;;;;;15.02;5.18;;;16.60;63.30;;;;;;2372866;56;21154;-60
2023/01/01 01:45:15;;;;;;;15.63;4.78;;;16.50;63.40;;;;;;2372806;56;21580;-60
2023/01/01 01:47:49;;;;;;;15.05;5.03;;;16.60;63.50;;;;;;2373699;56;21087;-60
2023/01/01 01:50:21;;;;;;;14.27;4.97;;;16.50;63.30;;;;;;2374841;56;21024;-60
2023/01/01 01:53:05;;;;;;;13.68;5.82;;;16.60;63.60;;;;;;2374923;56;21108;-60
2023/01/01 01:55:36;;;;;;;16.10;4.68;;;16.60;63.60;;;;;;2374790;56;21092;-61
2023/01/01 01:58:04;;;;;;;12.18;5.32;;;16.60;62.90;;;;;;2374791;56;21513;-61
2023/01/01 02:00:32;;;;;;;12.93;5.07;;;16.70;63.40;;;;;;2373553;56;21035;-60
2023/01/01 02:03:04;;;;;;;18.20;5.22;;;16.60;63.20;;;;;;2373339;56;21063;-60
2023/01/01 02:05:33;;;;;;;11.18;4.45;;;16.70;63.50;;;;;;2373470;56;21175;-60
2023/01/01 02:08:02;;;;;;;15.35;4.70;;;16.70;62.90;;;;;;2373917;56;21020;-61
2023/01/01 02:10:29;;;;;;;9.95;4.55;;;16.70;63.00;;;;;;2373533;56;21623;-61
2023/01/01 02:12:57;;;;;;;15.65;5.43;;;16.70;62.90;;;;;;2373993;56;21575;-60
2023/01/01 02:15:29;;;;;;;15.50;5.37;;;16.60;62.80;;;;;;2373284;56;21591;-60
2023/01/01 02:18:00;;;;;;;10.18;4.60;;;16.60;62.40;;;;;;2373652;56;21135;-60
2023/01/01 02:20:38;;;;;;;15.50;6.65;;;16.60;62.80;;;;;;2373923;56;21539;-61
2023/01/01 02:23:35;;;;;;;11.07;4.80;;;16.70;62.80;;;;;;2374116;56;21126;-60
2023/01/01 02:26:18;;;;;;;14.55;4.40;;;16.60;62.60;;;;;;2373456;56;21556;-59
2023/01/01 02:28:59;;;;;;;12.23;4.55;;;16.60;62.40;;;;;;2372394;56;21966;-60
2023/01/01 02:31:29;;;;;;;11.18;4.05;;;16.60;62.10;;;;;;2371686;56;21560;-62
2023/01/01 02:34:02;;;;;;;12.80;5.00;;;16.60;62.60;;;;;;2372663;56;21055;-60
2023/01/01 02:36:31;;;;;;;12.35;4.07;;;16.60;62.50;;;;;;2373541;56;21048;-60
2023/01/01 02:39:01;;;;;;;9.35;3.87;;;16.70;62.40;;;;;;2373617;56;21103;-61
2023/01/01 02:41:33;;;;;;;10.50;4.22;;;16.70;63.20;;;;;;2374900;56;21611;-60
2023/01/01 02:44:01;;;;;;;12.63;4.50;;;16.70;63.70;;;;;;2374628;56;21666;-60
2023/01/01 02:46:31;;;;;;;11.27;4.57;;;16.60;64.20;;;;;;2374745;56;21082;-60
2023/01/01 02:48:59;;;;;;;11.10;4.20;;;16.60;64.10;;;;;;2373725;56;21048;-60
2023/01/01 02:51:34;;;;;;;11.48;3.80;;;16.50;63.60;;;;;;2374634;56;21107;-60
2023/01/01 02:54:08;;;;;;;17.17;4.80;;;16.60;64.10;;;;;;2373712;56;21543;-61
2023/01/01 02:56:42;;;;;;;9.88;4.22;;;16.60;63.80;;;;;;2373830;56;21128;-60
2023/01/01 03:02:13;;;;;;;11.50;4.50;;;16.50;64.40;;;;;;2373660;52;21006;-61
2023/01/01 03:04:53;;;;;;;12.82;4.95;;;16.50;64.60;;;;;;2373168;56;21559;-60
2023/01/01 03:07:26;;;;;;;10.48;4.12;;;16.50;64.30;;;;;;2373594;56;21043;-60
2023/01/01 03:10:02;;;;;;;10.55;4.82;;;16.40;64.20;;;;;;2374412;56;22092;-60
2023/01/01 03:12:38;;;;;;;13.85;4.68;;;16.40;64.40;;;;;;2373332;56;21587;-60
2023/01/01 03:15:13;;;;;;;11.27;4.50;;;16.40;64.70;;;;;;2373631;56;21044;-60
2023/01/01 03:17:45;;;;;;;17.48;4.72;;;16.40;64.40;;;;;;2373680;56;21519;-61
2023/01/01 03:20:17;;;;;;;9.85;4.80;;;16.40;64.30;;;;;;2373877;56;21047;-61
2023/01/01 03:22:48;;;;;;;12.32;4.55;;;16.40;64.60;;;;;;2372467;56;21162;-61
2023/01/01 03:25:20;;;;;;;8.43;4.57;;;16.40;64.40;;;;;;2373111;56;21525;-60
2023/01/01 03:27:51;;;;;;;9.73;4.25;;;16.40;64.90;;;;;;2374688;56;21631;-60
2023/01/01 03:30:20;;;;;;;7.97;4.37;;;16.40;65.00;;;;;;2374762;56;21535;-60
2023/01/01 03:33:02;;;;;;;11.80;4.75;;;16.40;65.40;;;;;;2374745;56;21531;-60
2023/01/01 03:35:34;;;;;;;14.00;4.50;;;16.40;65.50;;;;;;2374657;56;21910;-59
2023/01/01 03:38:04;;;;;;;14.32;5.80;;;16.40;66.30;;;;;;2374563;56;21079;-60
2023/01/01 03:40:34;;;;;;;12.63;5.40;;;16.40;66.30;;;;;;2373710;56;21043;-60
2023/01/01 03:43:05;;;;;;;10.40;5.12;;;16.40;66.40;;;;;;2372704;56;21051;-61
2023/01/01 03:45:38;;;;;;;11.27;5.70;;;16.40;66.70;;;;;;2417454;52;21040;-61
2023/01/01 03:48:06;;;;;;;10.68;5.28;;;16.40;66.60;;;;;;2373799;56;21040;-60
2023/01/01 03:50:45;;;;;;;12.80;5.90;;;16.40;66.50;;;;;;2373708;56;21053;-61
2023/01/01 03:53:26;;;;;;;18.98;6.62;;;16.30;66.40;;;;;;2373830;56;21519;-61
2023/01/01 03:56:02;;;;;;;14.10;6.03;;;16.30;66.60;;;;;;2373860;56;21539;-61
2023/01/01 03:58:38;;;;;;;14.30;6.40;;;16.30;66.40;;;;;;2373415;56;21516;-62
2023/01/01 04:01:10;;;;;;;9.55;5.90;;;16.20;66.50;;;;;;2373625;56;21559;-61
2023/01/01 04:03:40;;;;;;;11.38;5.30;;;16.20;66.50;;;;;;2373460;56;21044;-60
2023/01/01 04:06:10;;;;;;;15.48;6.45;;;16.30;66.30;;;;;;2373275;56;21043;-61
2023/01/01 04:08:38;;;;;;;12.27;5.15;;;16.30;66.40;;;;;;2373601;56;21075;-60
2023/01/01 04:13:57;;;;;;;13.38;6.30;;;16.30;66.30;;;;;;2392178;52;21108;-61
2023/01/01 04:16:24;;;;;;;14.90;5.80;;;16.20;66.10;;;;;;2373593;56;21052;-60
2023/01/01 04:18:51;;;;;;;11.30;5.30;;;16.20;66.00;;;;;;2372692;56;21107;-60
2023/01/01 04:21:18;;;;;;;11.35;5.55;;;16.20;66.10;;;;;;2373518;56;21088;-61
2023/01/01 04:23:45;;;;;;;12.52;5.45;;;16.20;66.10;;;;;;2373630;56;21115;-61
2023/01/01 04:26:14;;;;;;;13.15;5.30;;;16.20;66.30;;;;;;2373441;56;21056;-60
2023/01/01 04:28:41;;;;;;;10.02;5.03;;;16.20;66.50;;;;;;2373363;56;21580;-61
2023/01/01 04:31:09;;;;;;;9.98;4.72;;;16.30;66.20;;;;;;2372386;56;21055;-60
2023/01/01 04:33:36;;;;;;;11.07;5.15;;;16.30;66.10;;;;;;2372469;56;21032;-59
2023/01/01 04:36:05;;;;;;;12.75;6.00;;;16.30;66.20;;;;;;2373285;56;21087;-61
2023/01/01 04:38:34;;;;;;;12.48;5.55;;;16.30;66.10;;;;;;2373589;56;21050;-60
2023/01/01 04:41:20;;;;;;;10.40;4.93;;;16.30;65.90;;;;;;2374202;56;21088;-63
2023/01/01 04:43:49;;;;;;;11.68;5.18;;;16.30;66.00;;;;;;2332923;54;21624;-62
2023/01/01 04:46:17;;;;;;;17.27;5.50;;;16.30;66.10;;;;;;2307051;58;21112;-61
2023/01/01 04:48:45;;;;;;;14.07;5.05;;;16.30;65.90;;;;;;2307453;58;21559;-61
2023/01/01 04:51:14;;;;;;;12.88;5.28;;;16.30;65.70;;;;;;2311992;54;21647;-62
2023/01/01 04:53:42;;;;;;;13.95;5.47;;;16.30;65.90;;;;;;2305815;58;21592;-61
2023/01/01 04:56:12;;;;;;;12.37;4.80;;;16.30;66.10;;;;;;2306160;58;21517;-61
2023/01/01 04:58:41;;;;;;;12.82;4.90;;;16.30;66.00;;;;;;2305679;58;21391;-61
2023/01/01 05:01:15;;;;;;;13.35;4.95;;;16.30;65.60;;;;;;2305809;58;21497;-61
2023/01/01 05:06:19;;;;;;;11.57;5.12;;;16.30;65.50;;;;;;2355317;57;22046;-61
2023/01/01 05:08:48;;;;;;;14.45;5.32;;;16.20;65.40;;;;;;2348332;57;21104;-61
2023/01/01 05:11:17;;;;;;;10.05;4.60;;;16.30;65.80;;;;;;2348422;57;21113;-63
2023/01/01 05:13:46;;;;;;;12.65;4.78;;;16.30;65.30;;;;;;2372472;56;21650;-62
2023/01/01 05:16:16;;;;;;;13.62;4.53;;;16.30;65.40;;;;;;2374260;56;21692;-63
2023/01/01 05:18:43;;;;;;;11.50;5.07;;;16.30;65.50;;;;;;2374781;56;21031;-62
2023/01/01 05:21:13;;;;;;;9.77;4.68;;;16.30;65.40;;;;;;2374758;56;21496;-63
2023/01/01 05:23:40;;;;;;;8.95;4.28;;;16.30;65.20;;;;;;2373365;56;21145;-62
2023/01/01 05:26:11;;;;;;;10.32;4.93;;;16.30;65.90;;;;;;2374026;56;21106;-62
2023/01/01 05:28:39;;;;;;;12.15;4.22;;;16.30;64.90;;;;;;2374336;56;21550;-63
2023/01/01 05:33:43;;;;;;;11.20;4.53;;;16.30;64.50;;;;;;2327961;57;22137;-61
2023/01/01 05:36:15;;;;;;;12.27;3.45;;;16.30;64.50;;;;;;2319747;58;21727;-62
2023/01/01 05:38:42;;;;;;;6.37;3.37;;;16.20;65.20;;;;;;2352217;54;21535;-63
2023/01/01 05:41:12;;;;;;;11.73;3.97;;;16.30;64.60;;;;;;2318893;58;21630;-63
2023/01/01 05:43:39;;;;;;;9.25;3.92;;;16.20;64.00;;;;;;2319307;58;21654;-62
2023/01/01 05:46:11;;;;;;;9.82;3.37;;;16.30;63.20;;;;;;2319697;58;21788;-62
2023/01/01 05:48:38;;;;;;;8.05;3.60;;;16.30;63.60;;;;;;2319461;58;21214;-62
2023/01/01 05:51:07;;;;;;;7.20;3.62;;;16.30;63.40;;;;;;2319528;58;21064;-61
2023/01/01 05:53:35;;;;;;;11.50;3.35;;;16.30;63.50;;;;;;2320455;58;21024;-62
2023/01/01 05:56:03;;;;;;;6.78;3.58;;;16.30;63.60;;;;;;2321006;58;21124;-62
2023/01/01 05:58:31;;;;;;;10.95;3.58;;;16.40;63.30;;;;;;2320416;58;21028;-62
2023/01/01 06:01:06;;;;;;;9.70;4.03;;;16.40;63.40;;;;;;2320218;58;21020;-62
2023/01/01 06:03:33;;;;;;;7.62;3.80;;;16.40;62.70;;;;;;2319628;58;21071;-62
2023/01/01 06:06:04;;;;;;;11.43;3.85;;;16.40;62.90;;;;;;2319712;58;22146;-62
2023/01/01 06:08:31;;;;;;;12.02;3.87;;;16.40;63.10;;;;;;2319462;58;21603;-62
2023/01/01 06:11:00;;;;;;;13.20;4.30;;;16.40;62.20;;;;;;2319237;58;21044;-62
2023/01/01 06:13:27;;;;;;;5.65;3.12;;;16.40;62.40;;;;;;2319800;58;21071;-62
2023/01/01 06:18:32;;;;;;;10.20;3.30;;;16.40;61.50;;;;;;2355487;57;22046;-60
2023/01/01 06:21:05;;;;;;;8.40;3.30;;;16.50;61.50;;;;;;2347878;57;21053;-62
2023/01/01 06:23:32;;;;;;;10.27;2.30;;;16.50;61.40;;;;;;2369753;56;21055;-63
2023/01/01 06:26:05;;;;;;;8.13;3.10;;;16.50;60.90;;;;;;2374614;56;21031;-62
2023/01/01 06:28:32;;;;;;;;;;;16.40;60.90;;;;;;2377659;56;21570;-62
2023/01/01 06:31:00;;;;;;;11.82;2.75;;;16.50;61.90;;;;;;2374307;56;20129;-62
2023/01/01 06:33:28;;;;;;;5.00;2.55;;;16.40;61.00;;;;;;2374825;56;21518;-63
2023/01/01 06:35:55;;;;;;;11.25;2.97;;;16.40;61.40;;;;;;2374469;56;21086;-61
2023/01/01 06:38:23;;;;;;;13.18;3.25;;;16.40;60.50;;;;;;2374695;56;21129;-61
2023/01/01 06:40:56;;;;;;;11.02;3.40;;;16.40;60.80;;;;;;2373669;56;21055;-60
2023/01/01 06:43:24;;;;;;;9.25;3.20;;;16.40;60.80;;;;;;2375518;56;21834;-61
2023/01/01 06:46:00;;;;;;;13.55;3.67;;;16.40;60.70;;;;;;2375561;56;21027;-62
2023/01/01 06:48:29;;;;;;;6.50;2.67;;;16.40;60.80;;;;;;2375955;56;21094;-62
2023/01/01 06:50:56;;;;;;;8.82;3.33;;;16.40;59.80;;;;;;2375042;56;21042;-63
2023/01/01 06:53:26;;;;;;;6.55;3.00;;;16.40;60.00;;;;;;2374293;56;21570;-62
2023/01/01 06:55:54;;;;;;;9.65;2.92;;;16.40;60.80;;;;;;2374174;56;21047;-62
2023/01/01 06:58:21;;;;;;;7.25;3.08;;;16.40;60.20;;;;;;2373447;56;21039;-62
2023/01/01 07:00:48;;;;;;;6.03;3.17;;;16.40;59.90;;;;;;2374527;56;21043;-62
2023/01/01 07:03:15;;;;;;;10.38;3.70;;;16.40;60.50;;;;;;2375148;56;21039;-62
2023/01/01 07:05:42;;;;;;;12.57;3.03;;;16.40;60.10;;;;;;2375008;56;21039;-62
2023/01/01 07:08:09;;;;;;;7.75;3.33;;;16.40;60.00;;;;;;2375549;56;21027;-61
2023/01/01 07:10:36;;;;;;;12.43;2.70;;;16.40;59.70;;;;;;2374716;56;21067;-62
2023/01/01 07:13:03;;;;;;;5.80;2.78;;;16.40;59.90;;;;;;2374755;56;21023;-61
2023/01/01 07:15:31;;;;;;;7.18;3.25;;;16.40;60.10;;;;;;2373446;56;21047;-60
2023/01/01 07:17:58;;;;;;;9.20;2.67;;;16.40;59.80;;;;;;2374301;56;21539;-62
2023/01/01 07:20:25;;;;;;;9.18;2.55;;;16.40;60.10;;;;;;2374956;56;21126;-62
2023/01/01 07:22:52;;;;;;;6.57;2.33;;;16.40;60.00;;;;;;2374622;56;21535;-62
2023/01/01 07:25:19;;;;;;;8.75;2.62;;;16.30;59.70;;;;;;2374596;56;21043;-62
2023/01/01 07:27:46;;;;;;;11.73;3.87;;;16.30;59.60;;;;;;2373955;56;21047;-63
2023/01/01 07:32:55;;;;;;;8.90;2.72;;;16.40;59.90;;;;;;2340922;57;22567;-61
2023/01/01 07:35:22;;;;;;;7.53;2.65;;;16.40;60.00;;;;;;2346720;57;21537;-61
2023/01/01 07:37:49;;;;;;;11.15;3.47;;;16.30;59.60;;;;;;2347221;57;21050;-61
2023/01/01 07:40:17;;;;;;;9.68;2.87;;;16.30;59.90;;;;;;2347170;57;21042;-61
2023/01/01 07:42:44;;;;;;;8.70;2.80;;;16.30;59.70;;;;;;2346803;57;21592;-60
2023/01/01 07:45:12;;;;;;;8.25;3.03;;;16.30;59.40;;;;;;2346616;57;21030;-61
2023/01/01 07:47:39;;;;;;;5.18;2.40;;;16.30;59.30;;;;;;2345312;57;21588;-61
2023/01/01 07:50:14;;;;;;;8.05;2.85;;;16.20;59.50;;;;;;2346482;57;21427;-61
2023/01/01 07:52:41;;;;;;;7.78;2.47;;;16.20;59.40;;;;;;2347664;57;22138;-61
2023/01/01 07:55:12;;;;;;;7.15;2.62;;;16.20;59.90;;;;;;2346875;57;21057;-60
2023/01/01 07:57:39;;;;;;;6.53;2.40;;;16.20;59.90;;;;;;2346881;57;21099;-60
2023/01/01 08:00:10;;;;;;;10.90;2.40;;;16.20;59.70;;;;;;2346397;57;21042;-61
2023/01/01 08:02:37;;;;;;;7.05;2.10;;;16.20;59.90;;;;;;2347097;57;21106;-60
2023/01/01 08:05:05;;;;;;;8.75;2.15;;;16.20;59.00;;;;;;2346485;57;21050;-60
2023/01/01 08:07:32;;;;;;;8.10;2.55;;;16.20;59.60;;;;;;2347174;57;21562;-60
2023/01/01 08:10:00;;;;;;;4.40;1.73;;;16.20;59.10;;;;;;2346995;57;21530;-60
2023/01/01 08:12:27;;;;;;;4.43;2.03;;;16.20;58.90;;;;;;2347216;57;21049;-59
2023/01/01 08:14:54;;;;;;;4.40;2.08;;;16.20;58.80;;;;;;2346489;57;21053;-60
2023/01/01 08:17:21;;;;;;;7.15;1.90;;;16.20;58.90;;;;;;2346178;57;21029;-60
2023/01/01 08:19:49;;;;;;;4.60;2.08;;;16.20;58.50;;;;;;2344665;57;22039;-60
2023/01/01 08:22:16;;;;;;;7.30;1.75;;;16.20;57.80;;;;;;2347911;57;21100;-60
2023/01/01 08:24:44;;;;;;;7.43;2.17;;;16.20;58.30;;;;;;2345884;57;21032;-61
2023/01/01 08:27:12;;;;;;;5.47;1.52;;;16.10;59.00;;;;;;2347457;57;21022;-60
2023/01/01 08:29:40;;;;;;;6.30;1.48;;;16.10;58.90;;;;;;2348189;57;21014;-61
2023/01/01 08:32:07;;;;;;;3.20;1.50;;;16.10;58.90;;;;;;2346778;57;21710;-61
2023/01/01 08:34:34;;;;;;;6.37;1.60;;;16.10;58.80;;;;;;2346745;57;21593;-60
2023/01/01 08:37:01;;;;;;;9.98;1.73;;;16.10;59.10;;;;;;2346535;57;21054;-63
2023/01/01 08:39:29;;;;;;;6.50;1.87;;;16.10;58.90;;;;;;2347338;57;21064;-62
2023/01/01 08:41:56;;;;;;;5.40;1.48;;;16.10;58.40;;;;;;2346311;57;21101;-61
2023/01/01 08:44:23;;;;;;;2.70;1.42;;;16.10;58.80;;;;;;2345947;57;21133;-61
2023/01/01 08:46:52;;;;;;;6.90;2.12;;;16.10;58.60;;;;;;2404262;52;21093;-61
2023/01/01 08:49:19;;;;;;;7.43;2.20;;;16.10;58.20;;;;;;2347039;57;21046;-60
2023/01/01 08:51:47;;;;;;;9.32;2.12;;;16.00;58.50;;;;;;2346441;57;21552;-63
2023/01/01 08:54:14;;;;;;;4.12;2.00;;;16.00;58.40;;;;;;2345822;57;21057;-63
2023/01/01 08:56:41;;;;;;;3.47;1.60;;;16.00;58.50;;;;;;2345888;57;21046;-63
2023/01/01 08:59:08;;;;;;;1.73;1.33;;;16.00;58.60;;;;;;2346139;57;21034;-63
2023/01/01 09:01:35;;;;;;;4.30;1.50;;;16.00;58.80;;;;;;2344013;57;21081;-63
2023/01/01 09:04:02;;;;;;;6.53;2.45;;;16.00;58.20;;;;;;2345642;57;21104;-63
2023/01/01 09:06:30;;;;;;;3.50;1.52;;;16.00;58.40;;;;;;2346072;57;21601;-64
2023/01/01 09:08:57;;;;;;;2.85;1.48;;;16.00;57.90;;;;;;2345789;57;21549;-62
2023/01/01 09:11:26;;;;;;;3.65;1.60;;;16.00;57.70;;;;;;2345972;57;21125;-60
2023/01/01 09:13:53;;;;;;;5.45;1.50;;;16.00;58.10;;;;;;2347302;57;21514;-60
2023/01/01 09:16:21;;;;;;;3.90;1.20;;;16.00;57.80;;;;;;2346770;57;21085;-60
2023/01/01 09:18:49;;;;;;;1.25;1.00;;;16.00;58.10;;;;;;2344587;57;21022;-63
2023/01/01 09:21:16;;;;;;;3.42;1.20;;;16.00;57.80;;;;;;2347242;57;21540;-63
2023/01/01 09:23:43;;;;;;;4.20;1.60;;;15.90;57.70;;;;;;2346577;57;21534;-63
2023/01/01 09:26:10;;;;;;;3.92;1.50;;;15.90;58.50;;;;;;2345791;57;21538;-62
2023/01/01 09:28:38;;;;;;;3.97;1.50;;;15.90;58.50;;;;;;2345922;57;21105;-63
2023/01/01 09:31:05;;;;;;;2.50;1.20;;;15.90;58.10;;;;;;2346141;57;21620;-61
2023/01/01 09:33:33;;;;;;;3.37;1.42;;;15.90;58.00;;;;;;2345300;57;21030;-59
2023/01/01 09:36:25;;;;;;;3.65;1.45;;;15.90;57.50;;;;;;2345570;57;21077;-59
2023/01/01 09:38:53;;;;;;;3.05;1.40;;;15.90;57.20;;;;;;2346379;57;21038;-61
2023/01/01 09:41:24;;;;;;;4.22;1.23;;;15.90;57.00;;;;;;2346768;57;21522;-63
2023/01/01 09:44:00;;;;;;;3.72;1.33;;;15.80;57.70;;;;;;2346724;57;21529;-62
2023/01/01 09:46:28;;;;;;;2.83;1.52;;;15.80;57.40;;;;;;2346154;57;21106;-62
2023/01/01 09:48:58;;;;;;;3.70;1.25;;;15.90;57.60;;;;;;2346051;57;21042;-62
2023/01/01 09:51:32;;;;;;;11.35;2.10;;;15.90;57.70;;;;;;2345213;57;21085;-63
2023/01/01 09:54:07;;;;;;;6.37;1.45;;;15.90;57.30;;;;;;2349851;53;22117;-63
2023/01/01 09:56:35;;;;;;;4.12;1.65;;;15.90;58.20;;;;;;2344795;57;21054;-63
2023/01/01 09:59:03;;;;;;;11.88;3.00;;;15.90;58.30;;;;;;2345565;57;21034;-63
2023/01/01 10:01:41;;;;;;;3.67;1.37;;;15.90;57.80;;;;;;2346017;57;21112;-62
2023/01/01 10:04:24;;;;;;;3.12;1.20;;;15.90;57.90;;;;;;2347428;57;21018;-63
2023/01/01 10:07:02;;;;;;;5.55;1.40;;;16.00;56.90;;;;;;2347066;57;21065;-62
2023/01/01 10:09:39;;;;;;;3.45;1.12;;;15.90;57.90;;;;;;2346802;57;21602;-63
2023/01/01 10:12:15;;;;;;;3.53;1.48;;;16.00;57.90;;;;;;2346191;57;21109;-63
2023/01/01 10:14:45;;;;;;;3.30;1.25;;;15.90;58.20;;;;;;2346069;57;21101;-63
2023/01/01 10:17:17;;;;;;;6.03;1.55;;;15.90;58.20;;;;;;2346169;57;21597;-63
2023/01/01 10:19:48;;;;;;;4.75;1.33;;;15.80;57.00;;;;;;2345746;57;21655;-63
2023/01/01 10:22:21;;;;;;;4.40;1.20;;;15.90;56.70;;;;;;2345940;57;21125;-63
2023/01/01 10:24:54;;;;;;;6.93;2.15;;;15.90;56.20;;;;;;2346505;57;21541;-64
2023/01/01 10:27:30;;;;;;;2.75;0.93;;;15.90;56.90;;;;;;2346278;57;21546;-64
2023/01/01 10:29:59;;;;;;;5.97;1.58;;;15.90;56.70;;;;;;2344828;57;21569;-61
2023/01/01 10:32:30;;;;;;;6.25;1.83;;;15.90;56.80;;;;;;2346517;57;21113;-61
2023/01/01 10:34:58;;;;;;;6.93;1.75;;;15.90;56.50;;;;;;2346366;57;21093;-61
2023/01/01 10:37:30;;;;;;;3.92;1.30;;;15.90;56.60;;;;;;2346150;57;21581;-61
2023/01/01 10:39:57;;;;;;;7.00;1.60;;;16.00;56.90;;;;;;2344414;57;21169;-61
2023/01/01 10:42:26;;;;;;;4.80;1.40;;;15.90;57.60;;;;;;2343095;57;21061;-63
2023/01/01 10:44:55;;;;;;;6.95;1.65;;;15.90;58.40;;;;;;2343692;57;21037;-63
2023/01/01 10:47:27;;;;;;;3.67;1.77;;;16.00;58.00;;;;;;2345170;57;21113;-63
2023/01/01 10:49:57;;;;;;;3.22;1.23;;;16.00;57.60;;;;;;2358686;53;21117;-63
2023/01/01 10:52:35;;;;;;;3.47;1.20;;;16.00;57.30;;;;;;2346843;57;21013;-63
2023/01/01 10:55:03;;;;;;;3.87;1.20;;;16.00;57.50;;;;;;2345991;57;21073;-63
2023/01/01 10:57:36;;;;;;;4.25;1.48;;;16.00;57.50;;;;;;2346551;57;21006;-66
2023/01/01 11:00:19;;;;;;;3.00;1.70;;;16.10;58.00;;;;;;2346013;57;21102;-63
2023/01/01 11:02:46;;;;;;;4.72;2.15;;;16.00;57.90;;;;;;2346055;57;21129;-62
2023/01/01 11:05:16;;;;;;;5.10;1.52;;;16.10;57.70;;;;;;2345854;57;21573;-62
2023/01/01 11:07:44;;;;;;;3.97;1.40;;;16.00;57.80;;;;;;2360743;53;21548;-63
2023/01/01 11:10:19;;;;;;;3.83;1.45;;;16.00;56.70;;;;;;2344999;57;21632;-62
2023/01/01 11:12:49;;;;;;;2.67;1.12;;;16.00;57.20;;;;;;2340086;57;21580;-62
2023/01/01 11:18:04;;;;;;;6.60;1.58;;;16.00;57.00;;;;;;2326425;57;22044;-60
2023/01/01 11:20:33;;;;;;;5.43;1.45;;;16.00;55.70;;;;;;2344496;57;21057;-62
2023/01/01 11:23:18;;;;;;;3.70;1.58;;;15.90;55.90;;;;;;2345521;57;21132;-61
2023/01/01 11:25:57;;;;;;;7.03;2.08;;;15.90;56.50;;;;;;2343871;57;21763;-62
2023/01/01 11:28:25;;;;;;;7.35;1.73;;;15.90;57.20;;;;;;2343416;57;21501;-62
2023/01/01 11:31:12;;;;;;;4.03;1.45;;;15.80;57.20;;;;;;2341985;57;21045;-63
2023/01/01 11:33:44;;;;;;;2.92;1.23;;;15.80;56.80;;;;;;2343449;57;21053;-59
2023/01/01 11:36:19;;;;;;;3.15;1.10;;;15.80;56.70;;;;;;2344960;57;21050;-61
2023/01/01 11:38:49;;;;;;;2.78;1.27;;;15.70;55.20;;;;;;2344546;57;21141;-62
2023/01/01 11:41:16;;;;;;;5.90;1.33;;;15.70;55.30;;;;;;2344000;57;21612;-62
2023/01/01 11:43:46;;;;;;;4.28;1.42;;;15.70;55.30;;;;;;2351118;53;21541;-61
2023/01/01 11:46:21;;;;;;;5.20;1.67;;;15.70;55.70;;;;;;2345954;57;21565;-62
